createdAt,value
2018-03-24T00:00:07.458Z,100051.20
2018-03-24T00:02:35.013Z,100047.95
2018-03-24T00:05:02.479Z,100047.89
2018-03-24T00:07:29.965Z,100050.09
2018-03-24T00:09:57.435Z,100048.88
2018-03-24T00:12:24.918Z,100043.59
2018-03-24T00:14:52.411Z,100045.11
2018-03-24T00:17:19.866Z,100045.61
2018-03-24T00:19:47.319Z,100045.38
2018-03-24T00:22:14.820Z,100047.36
2018-03-24T00:24:42.275Z,100048.34
2018-03-24T00:27:09.739Z,100047.59
2018-03-24T00:29:37.271Z,100042.60
2018-03-24T00:32:04.743Z,100046.57
2018-03-24T00:34:32.300Z,100043.10
2018-03-24T00:36:59.806Z,100037.34
2018-03-24T00:39:27.278Z,100036.20
2018-03-24T00:41:54.870Z,100041.30
2018-03-24T00:44:22.346Z,100036.98
2018-03-24T00:46:49.806Z,100034.77
2018-03-24T00:49:17.342Z,100039.31
2018-03-24T00:51:44.802Z,100039.25
2018-03-24T00:54:12.259Z,100039.12
2018-03-24T00:56:39.757Z,100039.31
2018-03-24T00:59:07.283Z,100038.39
2018-03-24T01:01:34.842Z,100036.78
2018-03-24T01:04:02.336Z,100030.20
2018-03-24T01:06:29.894Z,100034.64
2018-03-24T01:08:57.362Z,100025.05
2018-03-24T01:11:24.867Z,100025.86
2018-03-24T01:13:52.336Z,100024.80
2018-03-24T01:16:19.791Z,100022.66
2018-03-24T01:18:47.289Z,100019.50
2018-03-24T01:21:14.751Z,100019.40
2018-03-24T01:23:42.220Z,100017.44
2018-03-24T01:26:09.686Z,100017.83
2018-03-24T01:28:37.172Z,100014.61
2018-03-24T01:31:04.631Z,100011.31
2018-03-24T01:33:32.224Z,100014.96
2018-03-24T01:35:59.726Z,100014.18
2018-03-24T01:38:27.183Z,100011.34
2018-03-24T01:40:54.665Z,100011.56
2018-03-24T01:43:22.164Z,100003.63
2018-03-24T01:45:49.746Z,100006.64
2018-03-24T01:48:17.186Z,100008.44
2018-03-24T01:50:44.649Z,100004.90
2018-03-24T01:53:12.103Z,99997.68
2018-03-24T01:55:39.612Z,100000.08
2018-03-24T01:58:07.072Z,99997.14
2018-03-24T02:00:34.526Z,100004.45
2018-03-24T02:03:02.002Z,99995.78
2018-03-24T02:05:29.458Z,99995.45
2018-03-24T02:07:56.937Z,99999.86
2018-03-24T02:10:24.446Z,99997.72
2018-03-24T02:12:51.900Z,99991.61
2018-03-24T02:15:19.347Z,99994.39
2018-03-24T02:17:46.826Z,99985.61
2018-03-24T02:20:14.630Z,99985.82
2018-03-24T02:22:42.119Z,99981.34
2018-03-24T02:25:09.613Z,99980.59
2018-03-24T02:27:37.070Z,99984.72
2018-03-24T02:30:04.552Z,99982.58
2018-03-24T02:32:32.164Z,99981.98
2018-03-24T02:34:59.660Z,99979.27
2018-03-24T02:37:27.120Z,99979.80
2018-03-24T02:39:54.611Z,99975.84
2018-03-24T02:42:22.113Z,99977.66
2018-03-24T02:44:49.622Z,99973.36
2018-03-24T02:47:17.086Z,99973.23
2018-03-24T02:49:44.542Z,99969.40
2018-03-24T02:52:12.018Z,99970.80
2018-03-24T02:54:39.515Z,99967.38
2018-03-24T02:57:06.972Z,99964.80
2018-03-24T02:59:34.430Z,99967.59
2018-03-24T03:02:01.909Z,99971.99
2018-03-24T03:04:29.482Z,99971.48
2018-03-24T03:06:56.942Z,99971.66
2018-03-24T03:09:24.406Z,99973.63
2018-03-24T03:11:51.898Z,99965.91
2018-03-24T03:14:19.349Z,99972.30
2018-03-24T03:16:46.887Z,99970.37
2018-03-24T03:19:14.346Z,99967.94
2018-03-24T03:21:51.604Z,99975.31
2018-03-24T03:24:19.080Z,99980.14
2018-03-24T03:26:46.555Z,99970.02
2018-03-24T03:29:14.072Z,99969.32
2018-03-24T03:31:41.535Z,99975.39
2018-03-24T03:34:08.997Z,99975.15
2018-03-24T03:36:36.480Z,99979.09
2018-03-24T03:39:03.936Z,99978.55
2018-03-24T03:41:31.426Z,99975.95
2018-03-24T03:43:58.885Z,99975.08
2018-03-24T03:46:26.330Z,99973.04
2018-03-24T03:48:53.813Z,99973.41
2018-03-24T03:51:21.275Z,99971.31
2018-03-24T03:53:48.834Z,99971.13
2018-03-24T03:56:16.339Z,99971.72
2018-03-24T03:58:43.822Z,99975.32
2018-03-24T04:01:11.318Z,99975.94
2018-03-24T04:03:38.867Z,99974.27
2018-03-24T04:06:06.322Z,99972.05
2018-03-24T04:08:33.795Z,99974.50
2018-03-24T04:11:01.248Z,99969.97
2018-03-24T04:13:28.705Z,99969.61
2018-03-24T04:15:56.182Z,99969.85
2018-03-24T04:18:23.658Z,99976.41
2018-03-24T04:20:51.116Z,99973.68
2018-03-24T04:23:18.613Z,99975.82
2018-03-24T04:25:46.075Z,99971.41
2018-03-24T04:28:13.541Z,99973.69
2018-03-24T04:30:41.014Z,99974.21
2018-03-24T04:33:08.462Z,99970.48
2018-03-24T04:35:35.941Z,99981.83
2018-03-24T04:38:03.410Z,99973.92
2018-03-24T04:40:30.874Z,99971.38
2018-03-24T04:42:58.434Z,99974.10
2018-03-24T04:45:26.001Z,99970.44
2018-03-24T04:47:53.461Z,99969.91
2018-03-24T04:50:20.949Z,99974.86
2018-03-24T04:52:48.413Z,99985.67
2018-03-24T04:55:15.905Z,99986.02
2018-03-24T04:57:43.370Z,99981.83
2018-03-24T05:00:10.923Z,99987.08
2018-03-24T05:02:38.390Z,99983.56
2018-03-24T05:05:05.996Z,99989.92
2018-03-24T05:07:33.490Z,99988.99
2018-03-24T05:10:00.938Z,99990.31
2018-03-24T05:12:28.414Z,99987.87
2018-03-24T05:14:55.871Z,99990.73
2018-03-24T05:17:23.328Z,99990.55
2018-03-24T05:19:50.903Z,99995.42
2018-03-24T05:22:18.358Z,99994.97
2018-03-24T05:24:45.832Z,99993.61
2018-03-24T05:27:13.287Z,99993.67
2018-03-24T05:29:40.765Z,99985.86
2018-03-24T05:32:08.236Z,99990.94
2018-03-24T05:34:35.694Z,99991.47
2018-03-24T05:37:03.166Z,99995.60
2018-03-24T05:39:30.642Z,99991.13
2018-03-24T05:41:58.158Z,99997.88
2018-03-24T05:44:25.627Z,99999.43
2018-03-24T05:46:53.106Z,100002.29
2018-03-24T05:49:20.564Z,99998.28
2018-03-24T05:51:48.084Z,100005.05
2018-03-24T05:54:15.654Z,100007.08
2018-03-24T05:56:43.147Z,100007.90
2018-03-24T05:59:10.641Z,100008.58
2018-03-24T06:01:38.119Z,100010.28
2018-03-24T06:04:05.612Z,100016.20
2018-03-24T06:06:33.137Z,100018.98
2018-03-24T06:09:00.939Z,100018.91
2018-03-24T06:11:28.403Z,100027.98
2018-03-24T06:13:55.874Z,100026.38
2018-03-24T06:16:23.360Z,100031.83
2018-03-24T06:18:50.824Z,100033.50
2018-03-24T06:21:18.287Z,100031.09
2018-03-24T06:23:45.756Z,100034.81
2018-03-24T06:26:13.234Z,100034.45
2018-03-24T06:28:40.716Z,100038.98
2018-03-24T06:34:09.566Z,100039.05
2018-03-24T06:36:37.354Z,100029.47
2018-03-24T06:39:04.815Z,100032.89
2018-03-24T06:41:32.354Z,100036.89
2018-03-24T06:43:59.924Z,100037.20
2018-03-24T06:46:27.420Z,100039.27
2018-03-24T06:48:54.960Z,100038.95
2018-03-24T06:51:22.487Z,100043.08
2018-03-24T06:53:49.952Z,100046.66
2018-03-24T06:56:17.421Z,100050.96
2018-03-24T06:58:44.901Z,100053.81
2018-03-24T07:01:12.356Z,100045.47
2018-03-24T07:03:39.823Z,100055.75
2018-03-24T07:06:07.307Z,100050.63
2018-03-24T07:08:34.792Z,100047.02
2018-03-24T07:11:02.258Z,100055.29
2018-03-24T07:13:29.797Z,100050.90
2018-03-24T07:15:57.265Z,100056.55
2018-03-24T07:18:24.758Z,100059.09
2018-03-24T07:20:52.214Z,100066.64
2018-03-24T07:23:19.679Z,100064.66
2018-03-24T07:25:47.158Z,100069.84
2018-03-24T07:28:14.623Z,100068.13
2018-03-24T07:30:42.120Z,100076.53
2018-03-24T07:33:09.581Z,100073.59
2018-03-24T07:35:37.079Z,100073.33
2018-03-24T07:38:04.581Z,100077.17
2018-03-24T07:40:32.035Z,100082.42
2018-03-24T07:42:59.510Z,100080.33
2018-03-24T07:45:26.974Z,100080.47
2018-03-24T07:47:54.503Z,100083.88
2018-03-24T07:50:21.967Z,100080.84
2018-03-24T07:52:49.425Z,100082.38
2018-03-24T07:55:16.926Z,100087.73
2018-03-24T07:57:44.448Z,100090.42
2018-03-24T08:00:11.955Z,100080.49
2018-03-24T08:02:39.507Z,100088.86
2018-03-24T08:05:07.005Z,100097.77
2018-03-24T08:07:34.475Z,100094.20
2018-03-24T08:10:02.043Z,100096.56
2018-03-24T08:12:29.529Z,100103.49
2018-03-24T08:14:57.054Z,100101.39
2018-03-24T08:17:24.521Z,100094.59
2018-03-24T08:19:51.989Z,100099.73
2018-03-24T08:22:19.438Z,100097.64
2018-03-24T08:24:46.924Z,100102.79
2018-03-24T08:27:14.388Z,100104.26
2018-03-24T08:29:41.854Z,100104.87
2018-03-24T08:32:09.357Z,100104.92
2018-03-24T08:34:36.914Z,100110.09
2018-03-24T08:37:04.376Z,100114.54
2018-03-24T08:39:31.846Z,100107.41
2018-03-24T08:41:59.331Z,100113.48
2018-03-24T08:44:26.798Z,100112.66
2018-03-24T08:46:54.282Z,100120.03
2018-03-24T08:49:21.755Z,100115.49
2018-03-24T08:51:49.237Z,100120.02
2018-03-24T08:54:16.710Z,100120.64
2018-03-24T08:56:44.175Z,100120.75
2018-03-24T08:59:11.698Z,100121.16
2018-03-24T09:01:39.167Z,100119.91
2018-03-24T09:04:06.642Z,100113.61
2018-03-24T09:06:34.116Z,100122.61
2018-03-24T09:09:01.652Z,100122.49
2018-03-24T09:11:29.186Z,100118.01
2018-03-24T09:13:56.656Z,100117.12
2018-03-24T09:16:24.122Z,100119.27
2018-03-24T09:18:51.612Z,100120.19
2018-03-24T09:21:19.088Z,100115.66
2018-03-24T09:23:46.551Z,100114.09
2018-03-24T09:26:14.035Z,100116.74
2018-03-24T09:28:41.502Z,100106.70
2018-03-24T09:31:08.968Z,100112.19
2018-03-24T09:33:36.474Z,100113.73
2018-03-24T09:36:03.947Z,100110.14
2018-03-24T09:38:31.423Z,100108.66
2018-03-24T09:40:58.888Z,100112.70
2018-03-24T09:43:26.463Z,100106.36
2018-03-24T09:45:53.954Z,100111.90
2018-03-24T09:48:21.406Z,100112.52
2018-03-24T09:50:48.866Z,100105.95
2018-03-24T09:53:16.356Z,100110.20
2018-03-24T09:55:43.872Z,100116.61
2018-03-24T09:58:11.343Z,100106.00
2018-03-24T10:00:38.818Z,100118.61
2018-03-24T10:03:06.287Z,100113.09
2018-03-24T10:05:33.811Z,100109.33
2018-03-24T10:08:01.322Z,100103.61
2018-03-24T10:10:28.779Z,100104.23
2018-03-24T10:12:56.282Z,100101.02
2018-03-24T10:15:23.758Z,100103.54
2018-03-24T10:17:51.227Z,100099.95
2018-03-24T10:20:18.714Z,100100.07
2018-03-24T10:23:06.077Z,100103.28
2018-03-24T10:25:33.568Z,100096.36
2018-03-24T10:28:01.087Z,100098.75
2018-03-24T10:30:28.558Z,100092.38
2018-03-24T10:32:56.037Z,100098.25
2018-03-24T10:35:23.581Z,100100.59
2018-03-24T10:37:56.690Z,100100.68
2018-03-24T10:40:24.285Z,100098.13
2018-03-24T10:42:57.450Z,100090.12
2018-03-24T10:45:24.943Z,100091.62
2018-03-24T10:47:52.470Z,100093.83
2018-03-24T10:50:19.953Z,100097.22
2018-03-24T10:52:47.451Z,100093.73
2018-03-24T10:55:14.917Z,100092.88
2018-03-24T10:57:42.382Z,100098.41
2018-03-24T11:00:09.894Z,100091.87
2018-03-24T11:02:37.381Z,100099.31
2018-03-24T11:05:04.858Z,100093.77
2018-03-24T11:07:32.351Z,100100.64
2018-03-24T11:09:59.818Z,100098.75
2018-03-24T11:12:27.283Z,100096.97
2018-03-24T11:14:54.789Z,100104.48
2018-03-24T11:17:22.256Z,100103.09
2018-03-24T11:19:49.735Z,100094.24
2018-03-24T11:22:17.342Z,100095.02
2018-03-24T11:24:44.871Z,100086.48
2018-03-24T11:27:12.334Z,100088.11
2018-03-24T11:29:39.827Z,100082.72
2018-03-24T11:32:07.323Z,100088.88
2018-03-24T11:34:34.806Z,100090.75
2018-03-24T11:37:02.303Z,100087.13
2018-03-24T11:39:29.798Z,100094.90
2018-03-24T11:41:57.295Z,100087.73
2018-03-24T11:44:24.754Z,100090.69
2018-03-24T11:46:52.223Z,100093.53
2018-03-24T11:49:19.704Z,100094.25
2018-03-24T11:51:47.162Z,100093.75
2018-03-24T11:54:14.640Z,100098.31
2018-03-24T11:56:42.131Z,100091.42
2018-03-24T11:59:09.599Z,100091.72
2018-03-24T12:01:37.055Z,100093.78
2018-03-24T12:04:04.551Z,100092.80
2018-03-24T12:06:32.016Z,100089.47
2018-03-24T12:08:59.593Z,100084.70
2018-03-24T12:11:27.090Z,100083.54
2018-03-24T12:13:54.571Z,100079.72
2018-03-24T12:16:22.061Z,100082.05
2018-03-24T12:18:49.505Z,100077.59
2018-03-24T12:21:17.014Z,100076.20
2018-03-24T12:23:44.513Z,100077.02
2018-03-24T12:26:11.974Z,100077.45
2018-03-24T12:28:39.442Z,100073.73
2018-03-24T12:31:06.917Z,100075.31
2018-03-24T12:33:34.387Z,100070.03
2018-03-24T12:36:01.874Z,100076.46
2018-03-24T12:38:29.350Z,100074.65
2018-03-24T12:40:56.873Z,100071.32
2018-03-24T12:43:24.391Z,100073.84
2018-03-24T12:45:51.848Z,100073.28
2018-03-24T12:48:19.327Z,100067.55
2018-03-24T12:50:46.969Z,100070.28
2018-03-24T12:53:14.450Z,100076.38
2018-03-24T12:55:41.999Z,100072.61
2018-03-24T12:58:09.461Z,100071.27
2018-03-24T13:00:36.945Z,100072.55
2018-03-24T13:03:04.443Z,100079.52
2018-03-24T13:05:31.908Z,100076.91
2018-03-24T13:07:59.378Z,100075.17
2018-03-24T13:10:26.893Z,100075.03
2018-03-24T13:12:54.427Z,100074.52
2018-03-24T13:15:21.948Z,100075.33
2018-03-24T13:17:49.406Z,100077.95
2018-03-24T13:20:16.870Z,100086.41
2018-03-24T13:22:44.373Z,100079.75
2018-03-24T13:25:11.905Z,100078.81
2018-03-24T13:27:39.432Z,100074.84
2018-03-24T13:30:06.902Z,100071.34
2018-03-24T13:32:34.399Z,100071.28
2018-03-24T13:35:01.954Z,100069.06
2018-03-24T13:37:29.491Z,100074.55
2018-03-24T13:39:56.959Z,100069.02
2018-03-24T13:42:24.555Z,100069.49
2018-03-24T13:44:52.029Z,100071.91
2018-03-24T13:47:19.551Z,100080.50
2018-03-24T13:49:47.095Z,100080.56
2018-03-24T13:52:14.556Z,100078.53
2018-03-24T13:54:42.036Z,100072.64
2018-03-24T13:57:09.522Z,100078.45
2018-03-24T13:59:36.988Z,100079.87
2018-03-24T14:02:04.478Z,100077.20
2018-03-24T14:04:32.025Z,100073.61
2018-03-24T14:06:59.530Z,100073.38
2018-03-24T14:09:27.126Z,100075.59
2018-03-24T14:11:54.627Z,100070.17
2018-03-24T14:14:22.138Z,100074.36
2018-03-24T14:16:49.594Z,100068.31
2018-03-24T14:19:17.117Z,100065.17
2018-03-24T14:21:44.597Z,100060.45
2018-03-24T14:24:12.077Z,100060.69
2018-03-24T14:26:39.565Z,100056.05
2018-03-24T14:29:07.111Z,100056.41
2018-03-24T14:31:34.602Z,100053.23
2018-03-24T14:34:02.081Z,100057.11
2018-03-24T14:36:29.543Z,100062.42
2018-03-24T14:38:57.013Z,100067.70
2018-03-24T14:41:24.600Z,100060.03
2018-03-24T14:43:52.176Z,100058.44
2018-03-24T14:46:19.642Z,100050.41
2018-03-24T14:48:47.250Z,100048.02
2018-03-24T14:51:14.712Z,100046.77
2018-03-24T14:53:42.175Z,100055.73
2018-03-24T14:56:09.775Z,100052.98
2018-03-24T14:58:37.263Z,100053.25
2018-03-24T15:01:04.726Z,100053.48
2018-03-24T15:03:32.184Z,100054.06
2018-03-24T15:05:59.674Z,100049.06
2018-03-24T15:08:27.288Z,100045.41
2018-03-24T15:10:54.750Z,100043.39
2018-03-24T15:13:22.257Z,100042.97
2018-03-24T15:15:49.723Z,100043.02
2018-03-24T15:18:17.318Z,100045.72
2018-03-24T15:20:44.807Z,100045.23
2018-03-24T15:23:12.386Z,100042.38
2018-03-24T15:25:39.931Z,100037.75
2018-03-24T15:28:07.413Z,100038.55
2018-03-24T15:30:46.798Z,100039.31
2018-03-24T15:33:26.144Z,100038.10
2018-03-24T15:36:05.646Z,100031.20
2018-03-24T15:38:33.231Z,100039.11
2018-03-24T15:41:00.888Z,100038.28
2018-03-24T15:43:28.370Z,100031.28
2018-03-24T15:45:55.862Z,100031.34
2018-03-24T15:48:23.421Z,100033.44
2018-03-24T15:50:50.875Z,100041.91
2018-03-24T15:53:18.349Z,100037.00
2018-03-24T15:55:45.839Z,100040.66
2018-03-24T15:58:13.366Z,100045.18
2018-03-24T16:00:40.825Z,100046.83
2018-03-24T16:03:08.301Z,100051.09
2018-03-24T16:05:35.771Z,100046.03
2018-03-24T16:08:03.263Z,100043.35
2018-03-24T16:10:30.737Z,100040.89
2018-03-24T16:12:58.210Z,100042.85
2018-03-24T16:15:25.709Z,100043.99
2018-03-24T16:17:53.179Z,100039.89
2018-03-24T16:20:20.635Z,100041.25
2018-03-24T16:22:48.209Z,100046.16
2018-03-24T16:25:15.709Z,100042.80
2018-03-24T16:27:43.205Z,100048.83
2018-03-24T16:30:10.707Z,100041.32
2018-03-24T16:32:38.969Z,100052.41
2018-03-24T16:35:06.426Z,100047.41
2018-03-24T16:37:33.986Z,100054.45
2018-03-24T16:40:01.467Z,100057.00
2018-03-24T16:42:28.970Z,100057.22
2018-03-24T16:44:56.474Z,100055.55
2018-03-24T16:47:24.140Z,100060.95
2018-03-24T16:49:51.613Z,100066.86
2018-03-24T16:52:19.084Z,100064.35
2018-03-24T16:54:46.589Z,100077.66
2018-03-24T16:57:14.053Z,100070.00
2018-03-24T16:59:41.539Z,100073.01
2018-03-24T17:02:09.037Z,100071.70
2018-03-24T17:04:36.498Z,100068.81
2018-03-24T17:07:03.992Z,100069.80
2018-03-24T17:09:31.492Z,100066.86
2018-03-24T17:11:58.954Z,100071.48
2018-03-24T17:14:26.452Z,100074.02
2018-03-24T17:16:53.943Z,100076.45
2018-03-24T17:19:21.424Z,100079.80
2018-03-24T17:21:48.912Z,100079.34
2018-03-24T17:24:16.422Z,100080.08
2018-03-24T17:26:43.892Z,100079.34
2018-03-24T17:29:11.435Z,100076.60
2018-03-24T17:31:38.974Z,100076.84
2018-03-24T17:34:06.485Z,100074.80
2018-03-24T17:36:33.958Z,100079.59
2018-03-24T17:39:01.428Z,100079.83
2018-03-24T17:41:28.959Z,100081.37
2018-03-24T17:43:56.496Z,100088.54
2018-03-24T17:46:24.012Z,100081.11
2018-03-24T17:48:51.532Z,100085.67
2018-03-24T17:51:18.967Z,100081.66
2018-03-24T17:53:46.437Z,100083.12
2018-03-24T17:56:13.902Z,100088.23
2018-03-24T17:58:41.393Z,100086.27
2018-03-24T18:01:08.878Z,100087.52
2018-03-24T18:03:36.354Z,100087.75
2018-03-24T18:06:03.830Z,100090.43
2018-03-24T18:08:31.327Z,100093.84
2018-03-24T18:10:58.792Z,100093.75
2018-03-24T18:13:26.270Z,100098.10
2018-03-24T18:15:53.758Z,100102.06
2018-03-24T18:18:21.323Z,100096.58
2018-03-24T18:20:48.867Z,100100.34
2018-03-24T18:23:16.364Z,100103.55
2018-03-24T18:25:43.894Z,100111.30
2018-03-24T18:28:11.380Z,100110.19
2018-03-24T18:30:38.838Z,100112.47
2018-03-24T18:33:06.362Z,100123.31
2018-03-24T18:35:33.855Z,100120.75
2018-03-24T18:38:01.394Z,100123.83
2018-03-24T18:40:28.868Z,100123.21
2018-03-24T18:42:56.399Z,100124.56
2018-03-24T18:45:23.861Z,100124.27
2018-03-24T18:47:51.350Z,100117.45
2018-03-24T18:50:18.874Z,100116.20
2018-03-24T18:52:46.352Z,100119.30
2018-03-24T18:55:13.968Z,100122.59
2018-03-24T18:57:41.423Z,100129.33
2018-03-24T19:00:09.015Z,100127.79
2018-03-24T19:02:36.473Z,100127.88
2018-03-24T19:05:03.947Z,100126.62
2018-03-24T19:07:31.433Z,100129.62
2018-03-24T19:09:58.910Z,100128.80
2018-03-24T19:12:26.407Z,100124.45
2018-03-24T19:14:53.898Z,100124.25
2018-03-24T19:17:21.375Z,100123.11
2018-03-24T19:19:48.888Z,100120.84
2018-03-24T19:22:16.352Z,100120.41
2018-03-24T19:24:43.831Z,100121.64
2018-03-24T19:27:11.294Z,100122.16
2018-03-24T19:29:38.771Z,100121.95
2018-03-24T19:32:06.274Z,100130.33
2018-03-24T19:34:33.752Z,100128.44
2018-03-24T19:37:01.221Z,100127.51
2018-03-24T19:39:28.713Z,100124.61
2018-03-24T19:41:56.186Z,100126.17
2018-03-24T19:44:23.680Z,100126.26
2018-03-24T19:46:51.250Z,100131.52
2018-03-24T19:49:18.722Z,100129.66
2018-03-24T19:51:46.182Z,100125.53
2018-03-24T19:54:13.667Z,100131.08
2018-03-24T19:56:41.121Z,100138.09
2018-03-24T19:59:08.592Z,100130.23
2018-03-24T20:01:36.066Z,100128.78
2018-03-24T20:04:03.599Z,100136.69
2018-03-24T20:06:31.936Z,100134.31
2018-03-24T20:08:59.405Z,100134.12
2018-03-24T20:11:26.928Z,100136.47
2018-03-24T20:13:54.387Z,100136.25
2018-03-24T20:16:21.850Z,100139.23
2018-03-24T20:18:49.354Z,100139.52
2018-03-24T20:21:16.839Z,100132.82
2018-03-24T20:23:44.339Z,100132.89
2018-03-24T20:26:11.839Z,100132.27
2018-03-24T20:28:39.371Z,100133.49
2018-03-24T20:31:06.831Z,100138.63
2018-03-24T20:33:34.351Z,100130.14
2018-03-24T20:36:01.812Z,100137.17
2018-03-24T20:38:29.280Z,100132.22
2018-03-24T20:40:56.779Z,100130.66
2018-03-24T20:43:24.255Z,100133.93
2018-03-24T20:45:51.756Z,100140.62
2018-03-24T20:48:19.287Z,100135.97
2018-03-24T20:50:46.767Z,100138.13
2018-03-24T20:53:14.226Z,100139.06
2018-03-24T20:55:41.699Z,100148.84
2018-03-24T20:58:09.159Z,100144.94
2018-03-24T21:00:36.667Z,100140.58
2018-03-24T21:03:04.157Z,100144.38
2018-03-24T21:05:31.643Z,100146.64
2018-03-24T21:07:59.127Z,100147.05
2018-03-24T21:10:27.098Z,100149.62
2018-03-24T21:12:54.571Z,100149.09
2018-03-24T21:15:22.030Z,100149.91
2018-03-24T21:17:49.524Z,100148.27
2018-03-24T21:20:17.041Z,100151.84
2018-03-24T21:22:44.565Z,100155.33
2018-03-24T21:25:12.034Z,100151.71
2018-03-24T21:27:39.518Z,100149.62
2018-03-24T21:30:07.008Z,100153.82
2018-03-24T21:32:34.481Z,100145.59
2018-03-24T21:35:01.958Z,100148.56
2018-03-24T21:37:29.567Z,100149.37
2018-03-24T21:39:57.065Z,100145.13
2018-03-24T21:42:24.588Z,100147.69
2018-03-24T21:44:52.068Z,100143.62
2018-03-24T21:47:19.601Z,100140.53
2018-03-24T21:49:47.143Z,100139.00
2018-03-24T21:52:14.696Z,100144.54
2018-03-24T21:54:42.291Z,100143.50
2018-03-24T21:57:09.894Z,100144.89
2018-03-24T21:59:37.379Z,100145.23
2018-03-24T22:02:04.878Z,100141.84
2018-03-24T22:04:32.380Z,100142.91
2018-03-24T22:06:59.869Z,100146.63
2018-03-24T22:09:27.342Z,100145.52
2018-03-24T22:11:54.873Z,100144.77
2018-03-24T22:14:22.436Z,100151.04
2018-03-24T22:16:49.925Z,100150.88
2018-03-24T22:19:17.390Z,100153.35
2018-03-24T22:21:44.863Z,100152.37
2018-03-24T22:24:12.326Z,100151.95
2018-03-24T22:26:39.824Z,100157.48
2018-03-24T22:29:07.542Z,100150.95
2018-03-24T22:31:35.013Z,100147.27
2018-03-24T22:34:02.505Z,100146.20
2018-03-24T22:36:30.090Z,100140.09
2018-03-24T22:38:57.560Z,100144.09
2018-03-24T22:41:25.091Z,100140.95
2018-03-24T22:43:52.559Z,100140.24
2018-03-24T22:46:20.039Z,100141.63
2018-03-24T22:48:47.555Z,100140.27
2018-03-24T22:51:15.018Z,100138.70
2018-03-24T22:53:42.546Z,100145.14
2018-03-24T22:56:10.019Z,100140.43
2018-03-24T22:58:37.513Z,100131.30
2018-03-24T23:01:05.022Z,100132.38
2018-03-24T23:03:32.479Z,100132.15
2018-03-24T23:05:59.938Z,100134.11
2018-03-24T23:08:27.427Z,100131.82
2018-03-24T23:10:54.887Z,100129.09
2018-03-24T23:13:22.356Z,100126.06
2018-03-24T23:15:49.847Z,100118.96
2018-03-24T23:18:17.327Z,100121.30
2018-03-24T23:20:44.803Z,100115.27
2018-03-24T23:23:12.392Z,100116.44
2018-03-24T23:25:39.866Z,100117.52
2018-03-24T23:28:07.336Z,100119.13
2018-03-24T23:30:34.816Z,100114.18
2018-03-24T23:33:02.280Z,100124.84
2018-03-24T23:35:29.740Z,100121.98
2018-03-24T23:37:57.226Z,100121.95
2018-03-24T23:40:24.681Z,100124.39
2018-03-24T23:42:52.150Z,100114.77
2018-03-24T23:45:19.645Z,100123.16
2018-03-24T23:47:47.093Z,100123.89
2018-03-24T23:50:14.566Z,100123.94
2018-03-24T23:52:42.036Z,100121.06
2018-03-24T23:55:09.591Z,100118.19
2018-03-24T23:57:37.058Z,100119.53
